createdAt,value
2019-03-15T14:03:50.519Z,965.29
2019-03-15T14:04:50.441Z,965.26
2019-03-15T14:06:43.223Z,965.35
2019-03-15T14:07:43.160Z,965.40
2019-03-15T14:09:36.000Z,965.42
2019-03-15T14:10:48.226Z,965.39
2019-03-15T14:12:28.689Z,965.36
2019-03-15T14:13:28.631Z,965.39
2019-03-15T14:15:21.435Z,965.36
2019-03-15T14:16:21.362Z,965.35
2019-03-15T14:18:14.176Z,965.38
2019-03-15T14:19:14.098Z,965.32
2019-03-15T14:21:07.131Z,965.14
2019-03-15T14:22:07.081Z,965.35
2019-03-15T14:23:59.893Z,965.26
2019-03-15T14:24:59.821Z,965.23
2019-03-15T14:26:52.611Z,965.22
2019-03-15T14:27:52.560Z,965.26
2019-03-15T14:29:45.370Z,965.17
2019-03-15T14:30:45.301Z,965.22
2019-03-15T14:32:38.107Z,965.32
2019-03-15T14:33:38.049Z,965.25
2019-03-15T14:35:30.950Z,965.42
2019-03-15T14:36:30.796Z,965.39
2019-03-15T14:38:23.859Z,965.32
2019-03-15T14:39:23.527Z,965.36
2019-03-15T14:41:16.597Z,965.33
2019-03-15T14:42:16.567Z,965.23
2019-03-15T14:44:09.087Z,965.30
2019-03-15T14:45:09.019Z,965.36
2019-03-15T14:47:01.807Z,965.41
2019-03-15T14:48:01.762Z,965.40
2019-03-15T14:49:54.587Z,965.42
2019-03-15T14:50:54.558Z,965.28
2019-03-15T14:52:47.309Z,965.42
2019-03-15T14:53:47.258Z,965.37
2019-03-15T14:55:40.069Z,965.23
2019-03-15T14:56:40.028Z,965.34
2019-03-15T14:58:33.290Z,965.30
2019-03-15T14:59:33.246Z,965.27
2019-03-15T15:01:26.063Z,965.20
2019-03-15T15:02:25.996Z,965.23
2019-03-15T15:04:18.801Z,965.19
2019-03-15T15:05:18.761Z,965.19
2019-03-15T15:07:11.541Z,965.17
2019-03-15T15:08:11.508Z,965.17
2019-03-15T15:10:04.329Z,965.19
2019-03-15T15:11:04.237Z,965.28
2019-03-15T15:12:57.028Z,965.25
2019-03-15T15:13:56.980Z,965.30
2019-03-15T15:15:49.820Z,965.27
2019-03-15T15:16:49.733Z,965.25
2019-03-15T15:18:43.509Z,965.28
2019-03-15T15:19:43.479Z,965.30
2019-03-15T15:21:36.273Z,965.25
2019-03-15T15:22:36.213Z,965.33
2019-03-15T15:24:29.470Z,965.28
2019-03-15T15:25:29.421Z,965.39
2019-03-15T15:27:25.524Z,965.30
2019-03-15T15:28:22.634Z,965.33
2019-03-15T15:30:15.435Z,965.33
2019-03-15T15:31:15.389Z,965.28
2019-03-15T15:33:08.162Z,965.38
2019-03-15T15:34:08.119Z,965.37
2019-03-15T15:36:00.929Z,965.39
2019-03-15T15:37:00.860Z,965.30
2019-03-15T15:38:53.652Z,965.39
2019-03-15T15:39:53.607Z,965.30
2019-03-15T15:41:46.440Z,965.23
2019-03-15T15:42:46.352Z,965.27
2019-03-15T15:44:39.157Z,965.30
2019-03-15T15:45:39.098Z,965.11
2019-03-15T15:47:31.910Z,965.19
2019-03-15T15:48:31.849Z,965.14
2019-03-15T15:50:25.164Z,965.24
2019-03-15T15:51:25.085Z,965.19
2019-03-15T15:53:17.880Z,965.27
2019-03-15T15:54:17.825Z,965.25
2019-03-15T15:56:10.644Z,965.31
2019-03-15T15:57:10.571Z,965.33
2019-03-15T15:59:03.402Z,965.24
2019-03-15T16:00:03.361Z,965.26
2019-03-15T16:01:56.133Z,965.32
2019-03-15T16:02:56.061Z,965.26
2019-03-15T16:04:48.852Z,965.24
2019-03-15T16:05:48.813Z,965.21
2019-03-15T16:07:41.713Z,965.26
2019-03-15T16:08:41.549Z,965.41
2019-03-15T16:10:34.366Z,965.16
2019-03-15T16:11:34.323Z,965.28
2019-03-15T16:13:27.094Z,965.19
2019-03-15T16:14:27.046Z,965.12
2019-03-15T16:16:20.385Z,965.14
2019-03-15T16:17:20.387Z,965.13
2019-03-15T16:19:13.572Z,965.25
2019-03-15T16:20:13.522Z,965.21
2019-03-15T16:22:06.338Z,965.22
2019-03-15T16:23:06.271Z,965.20
2019-03-15T16:24:59.072Z,965.17
2019-03-15T16:25:59.062Z,965.12
2019-03-15T16:27:51.839Z,965.15
2019-03-15T16:28:51.784Z,965.13
2019-03-15T16:30:44.579Z,965.19
2019-03-15T16:31:44.511Z,965.08
2019-03-15T18:24:02.717Z,965.91
2019-03-15T18:25:02.639Z,965.80
2019-03-15T18:26:55.955Z,965.85
2019-03-15T18:27:55.891Z,965.88
2019-03-15T18:29:48.688Z,965.86
2019-03-15T18:30:48.614Z,965.85
2019-03-15T18:32:41.845Z,965.86
2019-03-15T18:33:41.795Z,965.88
2019-03-15T18:35:34.591Z,965.89
2019-03-15T18:36:34.551Z,965.98
2019-03-15T18:38:27.323Z,966.02
2019-03-15T18:39:27.302Z,966.00
2019-03-15T18:41:20.045Z,965.98
2019-03-15T18:42:19.999Z,966.01
2019-03-15T18:44:12.838Z,966.06
2019-03-15T18:45:12.752Z,966.12
2019-03-15T18:47:05.556Z,966.17
2019-03-15T18:48:05.525Z,966.17
2019-03-15T18:49:59.372Z,966.18
2019-03-15T18:50:59.283Z,966.21
2019-03-15T18:52:52.598Z,966.10
2019-03-15T18:53:52.547Z,966.10
2019-03-15T18:55:45.463Z,966.22
2019-03-15T18:56:45.272Z,966.24
2019-03-15T18:57:45.266Z,966.23
2019-03-15T18:58:45.182Z,966.19
2019-03-15T18:59:45.133Z,966.25
2019-03-15T19:00:45.074Z,966.20
2019-03-15T19:01:44.989Z,966.28
2019-03-15T19:02:44.947Z,966.29
2019-03-15T19:03:44.900Z,966.22
2019-03-15T19:04:44.960Z,966.30
2019-03-15T19:05:44.840Z,966.29
2019-03-15T19:06:44.770Z,966.30
2019-03-15T19:07:44.756Z,966.22
2019-03-15T19:08:44.730Z,966.33
2019-03-15T19:09:44.630Z,966.34
2019-03-15T19:10:44.689Z,966.30
2019-03-15T19:11:44.557Z,966.43
2019-03-15T19:12:44.524Z,966.44
2019-03-15T19:13:44.452Z,966.31
2019-03-15T19:14:44.404Z,966.40
2019-03-15T19:15:44.357Z,966.33
2019-03-15T19:16:44.316Z,966.39
2019-03-15T19:17:44.307Z,966.44
2019-03-15T19:18:44.227Z,966.42
2019-03-15T19:19:44.189Z,966.45
2019-03-15T19:20:44.187Z,966.44
2019-03-15T19:21:44.117Z,966.47
2019-03-15T19:22:44.054Z,966.47
2019-03-15T19:23:44.008Z,966.51
2019-03-15T19:24:43.958Z,966.42
2019-03-15T19:25:43.912Z,966.49
2019-03-15T19:26:43.871Z,966.48
2019-03-15T19:27:43.835Z,966.50
2019-03-15T19:28:43.789Z,966.50
2019-03-15T19:29:52.957Z,966.43
2019-03-15T19:30:43.695Z,966.48
2019-03-15T19:31:43.648Z,966.52
2019-03-15T19:32:43.616Z,966.44
2019-03-15T19:33:43.562Z,966.51
2019-03-15T19:34:43.520Z,966.52
2019-03-15T19:35:43.465Z,966.47
2019-03-15T19:36:43.421Z,966.47
2019-03-15T19:37:43.506Z,966.55
2019-03-15T19:38:43.334Z,966.54
2019-03-15T19:39:43.286Z,966.57
2019-03-15T19:40:43.244Z,966.57
2019-03-15T19:41:43.199Z,966.54
2019-03-15T19:42:45.092Z,966.60
2019-03-15T19:43:43.110Z,966.52
2019-03-15T19:44:43.063Z,966.58
2019-03-15T19:45:43.019Z,966.60
2019-03-15T19:46:42.980Z,966.67
2019-03-15T19:47:43.030Z,966.66
2019-03-15T19:48:42.918Z,966.65
2019-03-15T19:49:42.843Z,966.69
2019-03-15T19:50:42.806Z,966.60
2019-03-15T19:51:42.752Z,966.66
2019-03-15T19:52:42.711Z,966.60
2019-03-15T19:53:42.693Z,966.71
2019-03-15T19:54:42.642Z,966.65
2019-03-15T19:55:42.575Z,966.76
2019-03-15T19:56:42.527Z,966.76
2019-03-15T19:57:42.486Z,966.82
2019-03-15T19:58:42.442Z,966.81
2019-03-15T19:59:42.409Z,966.79
2019-03-15T20:00:42.352Z,966.81
2019-03-15T20:01:42.310Z,966.82
2019-03-15T20:02:42.270Z,966.80
2019-03-15T20:03:44.340Z,966.93
2019-03-15T20:04:42.172Z,966.86
2019-03-15T20:05:42.134Z,966.95
2019-03-15T20:06:42.084Z,966.92
2019-03-15T20:07:42.088Z,966.90
2019-03-15T20:08:41.996Z,966.94
2019-03-15T20:09:41.974Z,966.93
2019-03-15T20:10:41.906Z,967.01
2019-03-15T20:11:41.868Z,966.98
2019-03-15T20:12:41.817Z,966.95
2019-03-15T20:13:41.776Z,966.95
2019-03-15T20:14:41.730Z,967.02
2019-03-15T20:15:41.692Z,966.98
2019-03-15T20:16:41.643Z,967.05
2019-03-15T20:17:41.692Z,967.07
2019-03-15T20:18:41.554Z,967.15
2019-03-15T20:19:41.515Z,967.18
2019-03-15T20:20:41.482Z,967.15
2019-03-15T20:21:41.419Z,967.19
2019-03-15T20:22:41.389Z,967.24
2019-03-15T20:23:41.331Z,967.23
2019-03-15T20:24:41.317Z,967.28
2019-03-15T20:25:41.243Z,967.28
2019-03-15T20:26:41.198Z,967.33
2019-03-15T20:27:41.220Z,967.30
2019-03-15T20:28:41.112Z,967.37
2019-03-15T20:29:41.064Z,967.35
2019-03-15T20:30:51.398Z,967.34
2019-03-15T20:31:41.044Z,967.34
2019-03-15T20:32:40.932Z,967.40
2019-03-15T20:33:40.887Z,967.50
2019-03-15T20:34:40.847Z,967.52
2019-03-15T20:35:40.799Z,967.56
2019-03-15T20:36:40.761Z,967.62
2019-03-15T20:37:40.710Z,967.57
2019-03-15T20:38:40.669Z,967.54
2019-03-15T20:39:40.618Z,967.55
2019-03-15T20:40:40.577Z,967.57
2019-03-15T20:41:40.532Z,967.51
2019-03-15T20:42:40.516Z,967.52
2019-03-15T20:43:40.447Z,967.50
2019-03-15T20:44:40.395Z,967.56
2019-03-15T20:45:40.354Z,967.71
2019-03-15T20:46:40.332Z,967.63
2019-03-15T20:47:40.266Z,967.96
2019-03-15T20:48:40.249Z,967.84
2019-03-15T20:49:40.179Z,967.91
2019-03-15T20:50:46.613Z,967.92
2019-03-15T20:51:40.088Z,967.75
2019-03-15T20:52:40.044Z,967.89
2019-03-15T20:53:40.006Z,967.92
2019-03-15T20:54:39.978Z,967.84
2019-03-15T20:55:40.030Z,967.76
2019-03-15T20:56:39.878Z,967.85
2019-03-15T20:57:39.823Z,967.78
2019-03-15T20:58:39.783Z,967.79
2019-03-15T20:59:39.736Z,967.85
2019-03-15T21:00:39.688Z,967.85
2019-03-15T21:01:39.646Z,967.87
2019-03-15T21:02:39.602Z,967.84
2019-03-15T21:03:39.556Z,967.88
2019-03-15T21:04:39.514Z,967.81
2019-03-15T21:05:39.470Z,967.96
2019-03-15T21:06:39.437Z,967.95
2019-03-15T21:07:39.383Z,967.94
2019-03-15T21:08:39.337Z,967.90
2019-03-15T21:09:39.312Z,967.97
2019-03-15T21:10:39.268Z,967.96
2019-03-15T21:11:39.208Z,967.95
2019-03-15T21:12:39.160Z,968.00
2019-03-15T21:13:39.114Z,968.03
2019-03-15T21:14:39.077Z,967.97
2019-03-15T21:15:39.023Z,968.02
2019-03-15T21:16:38.982Z,968.10
2019-03-15T21:17:38.936Z,967.97
2019-03-15T21:18:38.891Z,967.95
2019-03-15T21:19:38.847Z,967.99
2019-03-15T21:20:38.804Z,968.00
2019-03-15T21:21:38.768Z,967.98
2019-03-15T21:22:38.713Z,967.95
2019-03-15T21:23:38.670Z,967.93
2019-03-15T21:24:38.626Z,967.93
2019-03-15T21:25:38.581Z,967.92
2019-03-15T21:26:38.537Z,967.95
2019-03-15T21:27:52.584Z,967.96
2019-03-15T21:28:38.448Z,967.95
2019-03-15T21:29:38.407Z,967.99
2019-03-15T21:30:47.957Z,967.99
2019-03-15T21:31:38.315Z,968.02
2019-03-15T21:32:38.271Z,968.05
2019-03-15T21:33:38.226Z,968.07
2019-03-15T21:34:38.182Z,968.03
2019-03-15T21:35:38.140Z,967.97
2019-03-15T21:36:38.095Z,968.02
2019-03-15T21:37:38.057Z,968.01
2019-03-15T21:38:47.749Z,968.07
2019-03-15T21:39:37.957Z,968.01
2019-03-15T21:40:37.920Z,968.01
2019-03-15T21:41:37.865Z,968.06
2019-03-15T21:42:37.825Z,968.05
2019-03-15T21:43:37.799Z,968.07
2019-03-15T21:44:37.739Z,968.06
2019-03-15T21:45:37.695Z,968.09
2019-03-15T21:46:37.651Z,968.11
2019-03-15T21:47:37.620Z,967.96
2019-03-15T21:48:37.561Z,968.01
2019-03-15T21:49:37.518Z,968.06
2019-03-15T21:50:37.483Z,968.07
2019-03-15T21:51:37.428Z,968.12
2019-03-15T21:52:37.384Z,968.14
2019-03-15T21:53:37.343Z,968.15
2019-03-15T21:54:37.298Z,968.13
2019-03-15T21:55:37.252Z,968.20
2019-03-15T21:56:37.208Z,968.18
2019-03-15T21:57:37.161Z,968.17
2019-03-15T21:58:37.117Z,968.18
2019-03-15T21:59:39.140Z,968.12
2019-03-15T22:00:37.036Z,968.21
2019-03-15T22:01:36.983Z,968.21
2019-03-15T22:02:36.953Z,968.20
2019-03-15T22:03:36.895Z,968.25
2019-03-15T22:04:36.851Z,968.21
2019-03-15T22:05:36.810Z,968.21
2019-03-15T22:06:36.763Z,968.18
2019-03-15T22:07:36.717Z,968.28
2019-03-15T22:08:36.675Z,968.30
2019-03-15T22:09:36.660Z,968.24
2019-03-15T22:10:36.586Z,968.33
2019-03-15T22:11:36.540Z,968.36
2019-03-15T22:12:36.500Z,968.32
2019-03-15T22:13:36.455Z,968.36
2019-03-15T22:14:36.418Z,968.32
2019-03-15T22:15:36.366Z,968.40
2019-03-15T22:16:36.323Z,968.39
2019-03-15T22:17:36.461Z,968.36
2019-03-15T22:18:36.233Z,968.43
2019-03-15T22:19:36.190Z,968.50
2019-03-15T22:20:36.141Z,968.48
2019-03-15T22:21:36.097Z,968.50
2019-03-15T22:22:36.054Z,968.49
2019-03-15T22:23:36.009Z,968.52
2019-03-15T22:24:35.965Z,968.39
2019-03-15T22:25:35.919Z,968.42
2019-03-15T22:26:35.875Z,968.40
2019-03-15T22:27:35.831Z,968.43
2019-03-15T22:28:35.782Z,968.52
2019-03-15T22:29:35.744Z,968.50
2019-03-15T22:30:35.698Z,968.53
2019-03-15T22:31:35.654Z,968.51
2019-03-15T22:32:35.607Z,968.51
2019-03-15T22:33:35.564Z,968.51
2019-03-15T22:34:35.523Z,968.57
2019-03-15T22:35:35.472Z,968.48
2019-03-15T22:36:35.432Z,968.54
2019-03-15T22:37:35.398Z,968.62
2019-03-15T22:38:35.342Z,968.54
2019-03-15T22:39:35.303Z,968.56
2019-03-15T22:40:35.303Z,968.51
2019-03-15T22:41:35.923Z,968.53
2019-03-15T22:42:35.164Z,968.56
2019-03-15T22:43:35.123Z,968.57
2019-03-15T22:44:35.077Z,968.51
2019-03-15T22:45:35.039Z,968.56
2019-03-15T22:46:34.988Z,968.55
2019-03-15T22:47:34.959Z,968.60
2019-03-15T22:48:34.901Z,968.56
2019-03-15T22:49:34.854Z,968.57
2019-03-15T22:50:34.824Z,968.64
2019-03-15T22:51:34.773Z,968.77
2019-03-15T22:52:34.754Z,968.79
2019-03-15T22:53:34.679Z,968.95
2019-03-15T22:54:34.648Z,968.91
2019-03-15T22:55:34.590Z,968.96
2019-03-15T22:56:34.544Z,969.08
2019-03-15T22:57:34.529Z,968.97
2019-03-15T22:58:34.457Z,968.94
2019-03-15T22:59:34.412Z,968.98
2019-03-15T23:00:34.374Z,969.04
2019-03-15T23:01:34.328Z,969.05
2019-03-15T23:02:34.283Z,969.01
2019-03-15T23:03:34.265Z,969.04
2019-03-15T23:04:34.192Z,968.99
2019-03-15T23:05:34.148Z,969.02
2019-03-15T23:06:34.103Z,969.02
2019-03-15T23:07:34.060Z,969.02
2019-03-15T23:08:34.006Z,969.05
2019-03-15T23:09:33.973Z,969.09
2019-03-15T23:10:33.922Z,969.06
2019-03-15T23:11:33.881Z,969.04
2019-03-15T23:12:33.833Z,969.08
2019-03-15T23:13:33.788Z,969.12
2019-03-15T23:14:33.745Z,969.11
2019-03-15T23:15:33.699Z,969.12
2019-03-15T23:16:33.663Z,969.10
2019-03-15T23:17:33.620Z,969.03
2019-03-15T23:18:33.568Z,969.16
2019-03-15T23:19:33.542Z,969.18
2019-03-15T23:20:33.478Z,969.10
2019-03-15T23:21:33.426Z,969.26
2019-03-15T23:22:33.389Z,969.28
2019-03-15T23:23:33.347Z,969.30
2019-03-15T23:24:33.296Z,969.26
2019-03-15T23:25:33.349Z,969.26
2019-03-15T23:26:33.208Z,969.22
2019-03-15T23:27:33.170Z,969.20
2019-03-15T23:28:33.124Z,969.19
2019-03-15T23:29:33.077Z,969.26
2019-03-15T23:30:33.035Z,969.26
2019-03-15T23:31:42.909Z,969.26
2019-03-15T23:32:32.963Z,969.22
2019-03-15T23:33:32.901Z,969.32
2019-03-15T23:34:32.856Z,969.27
2019-03-15T23:35:32.811Z,969.30
2019-03-15T23:36:32.768Z,969.25
2019-03-15T23:37:32.722Z,969.27
2019-03-15T23:38:32.678Z,969.30
2019-03-15T23:39:32.637Z,969.26
2019-03-15T23:40:32.586Z,969.40
2019-03-15T23:41:32.572Z,969.32
2019-03-15T23:42:32.497Z,969.39
2019-03-15T23:43:32.456Z,969.48
2019-03-15T23:44:32.409Z,969.52
2019-03-15T23:45:32.371Z,969.52
2019-03-15T23:46:32.323Z,969.44
2019-03-15T23:47:32.278Z,969.48
2019-03-15T23:48:32.231Z,969.47
2019-03-15T23:49:32.190Z,969.45
2019-03-15T23:50:32.144Z,969.53
2019-03-15T23:51:32.101Z,969.53
2019-03-15T23:52:32.058Z,969.50
2019-03-15T23:53:32.011Z,969.52
2019-03-15T23:54:31.965Z,969.52
2019-03-15T23:55:31.923Z,969.56
2019-03-15T23:56:31.889Z,969.62
2019-03-15T23:57:31.841Z,969.67
2019-03-15T23:58:31.792Z,969.72
2019-03-15T23:59:31.750Z,969.74
